logo
App data

Abrix for kids

Abrix is back! The new task is to get a treasure stolen by nasty gnomes. Join it and take part in solving intriguing puzzles of this extremely engaging logical game.
Store | Hub | SteamDB
Developer: EJRGames Publisher: EJRGames
Genre: Casual, Indie, Strategy
Languages: English, Polish
Tags: Casual (26), Strategy (25), Indie (24), Puzzle (5)
Category: Single-player, Steam Achievements, Full controller support, Steam Trading Cards, Steam Workshop, Steam Cloud, Includes level editor
Release date: Aug 12, 2016 (previously in Early Access)
Price: $4.99
Old userscore: 36% Owners: 20,000 .. 50,000
Followers: 108
Peak concurrent players yesterday: 1
Playtime total: 03:14 (average) 02:52 (median)

Steam Spy is still in beta, so expect major bugs.

Owners data:

Access restricted.

This feature is only available to users with special access rights. Sorry.

If you want to proceed, you need to register or log in first and then back Steam Spy on Patreon. Look for Indie or Pro pledge.

Don't forget to use the same email as on Steam Spy!

Audience in 2 weeks:

Access restricted.

This feature is only available to users with special access rights. Sorry.

If you want to proceed, you need to register or log in first and then back Steam Spy on Patreon. Look for Indie or Pro pledge.

Don't forget to use the same email as on Steam Spy!

Peak daily concurrent players:

CCU data courtesy of SteamDB. Used with permission.

Hourly concurrent players:

YouTube:

The views data is based on top 50 videos uploaded last week. Actual number of views might be more than the number shown.

The displayed number of videos uploaded yesterday is limited to 50, so if there were more videos uploaded, the number will still show 50.

If the game has commonly used word as its name (like "FEAR" or "Volume") its number of Youtube views might be wrong.

Games similar to this one:

# Game Release date
Price
Score rank
(Userscore / Metascore)
Owners
Players
Playtime (Median)
1 Everyday Genius: SquareLogic Oct 9, 2009 $4.9997% (97%)0 .. 20,0000%00:00 (00:00)
2 Luxor Evolved Mar 1, 2012 $9.9997% (97%)50,000 .. 100,0000%00:00 (00:00)
3 Stephen's Sausage Roll Apr 17, 2016 $29.9997% (97%/90%)20,000 .. 50,0002.3%01:37 (01:04)
4 Hustle Cat Mar 16, 2016 $19.9995% (96%)20,000 .. 50,0000%00:00 (00:00)
5 Unium Feb 3, 2015 $1.9992% (95%)20,000 .. 50,0000%00:00 (00:00)
6 A Good Snowman Is Hard To Build Feb 25, 2015 $9.9992% (95%)20,000 .. 50,0000%00:00 (00:00)
7 The Counting Kingdom Aug 5, 2014 $6.99N/A (N/A)0 .. 20,0000%00:00 (00:00)
8 Divide By Sheep Jul 2, 2015 $4.9992% (95%/83%)100,000 .. 200,0000%00:00 (00:00)
9 Moonlight Feb 5, 2016 $2.9992% (95%)0 .. 20,0000%00:00 (00:00)
10 Chip's Challenge 2 May 28, 2015 $4.9990% (94%)20,000 .. 50,0000%00:00 (00:00)
11 Pictopix Jan 5, 2017 $6.9990% (94%)0 .. 20,00010%04:09 (02:36)
12 Girls Like Robots Feb 14, 2014 $6.99N/A (N/A)100,000 .. 200,0000%00:00 (00:00)
13 Tennis in the Face Nov 18, 2015 $4.99N/A (N/A)0 .. 20,0000%00:00 (00:00)
14 Heart's Medicine - Time to Heal Sep 20, 2016 $12.9983% (92%)20,000 .. 50,0000%00:00 (00:00)
15 Cloudberry Kingdom Aug 2, 2013 $9.9983% (92%/67%)20,000 .. 50,0000%00:00 (00:00)
16 Unhack Feb 20, 2014 $1.9983% (92%)20,000 .. 50,0000%00:00 (00:00)
17 SWEATER? OK! Dec 16, 2016 $3.9976% (90%)0 .. 20,0003.51%02:59 (02:37)
18 Vampires: Guide Them to Safety! Oct 22, 2014 $4.99N/A (N/A)0 .. 20,0000%00:00 (00:00)
19 Koala Kids Jun 22, 2015 $1.9976% (90%)20,000 .. 50,0000%00:00 (00:00)
20 Axes and Acres Apr 7, 2016 $9.9976% (90%)0 .. 20,0000%00:00 (00:00)
21 Forgotten, Not Lost - A Kinetic Novel Apr 1, 2016 $1.9973% (89%)50,000 .. 100,00011.04%04:12 (04:36)
22 The Reject Demon: Toko Chapter 0 — Prelude May 9, 2015 $4.9973% (89%)0 .. 20,0001.59%02:38 (00:52)
23 This Starry Midnight We Make Jun 1, 2015 $9.99N/A (N/A)0 .. 20,0000%00:00 (00:00)
24 Planes, Bullets and Vodka Dec 13, 2016 $0.9973% (89%)100,000 .. 200,0003.2%01:18 (01:34)
25 12 Labours of Hercules IV: Mother Nature (Platinum Edition) Dec 25, 2015 $2.9973% (89%)20,000 .. 50,0000.78%00:09 (00:03)
26 Bob Was Hungry Aug 19, 2015 $9.9970% (88%)20,000 .. 50,0000%00:00 (00:00)
27 In Between Aug 21, 2015 $11.9970% (88%/68%)50,000 .. 100,0000%00:00 (00:00)
28 Masochisia Oct 9, 2015 $7.9967% (87%/68%)0 .. 20,0000%00:00 (00:00)
29 Asphyxia Aug 4, 2015 $5.9967% (87%)20,000 .. 50,0000%00:00 (00:00)
30 The Shape Of Heart Oct 25, 2016 $2.9967% (87%)0 .. 20,0000%00:00 (00:00)
31 Anode Oct 5, 2015 $3.99N/A (N/A)0 .. 20,0002.38%01:37 (00:32)
32 Star Sky 2 - ブルームーン 2 Mar 2, 2016 $2.99N/A (N/A)0 .. 20,0000%00:00 (00:00)
33 Drawful 2 Jun 20, 2016 $9.9964% (86%)100,000 .. 200,0001.9%01:00 (00:57)
34 Project Starship Apr 5, 2016 $0.9962% (85%)200,000 .. 500,0002.25%03:54 (04:26)
35 Sentinel 4: Dark Star Aug 13, 2015 $6.99N/A (N/A)0 .. 20,0000%00:00 (00:00)
36 Gravity Error Aug 12, 2015 $4.99N/A (N/A)0 .. 20,0000%00:00 (00:00)
37 Governor of Poker 2 - Premium Edition Oct 11, 2010 $14.9959% (84%)20,000 .. 50,0000%00:00 (00:00)
38 RePete Mar 9, 2016 $1.99N/A (N/A)0 .. 20,0000%00:00 (00:00)
39 Collisions Jul 28, 2015 $3.9956% (83%)20,000 .. 50,0000%00:00 (00:00)
40 Crash Drive 2 May 28, 2015 $4.9956% (83%)50,000 .. 100,0000%00:00 (00:00)
41 Cute Things Dying Violently Sep 2, 2015 $2.99N/A (N/A)0 .. 20,0000%00:00 (00:00)
42 Space Drifters 2D Mar 28, 2016 $0.99N/A (N/A)20,000 .. 50,0000%00:00 (00:00)
43 Stay Alight Mar 2, 2015 $3.9952% (81%)20,000 .. 50,0000%00:00 (00:00)
44 Masky Dec 16, 2016 $0.9952% (81%)0 .. 20,0000%00:00 (00:00)
45 Cash_Out May 27, 2015 $4.99N/A (N/A)0 .. 20,0000%00:00 (00:00)
46 OTTTD Aug 6, 2014 $7.9949% (80%)20,000 .. 50,0000%00:00 (00:00)
47 Egg Returns Home May 5, 2015 $1.9949% (80%)20,000 .. 50,0000%00:00 (00:00)
48 Optika Aug 26, 2016 $4.9947% (79%)20,000 .. 50,0000%00:00 (00:00)
49 Terraform May 8, 2015 $2.99N/A (N/A)0 .. 20,0000%00:00 (00:00)
50 Feesh Feb 1, 2016 $0.9945% (78%)0 .. 20,0000%00:00 (00:00)
51 Particulars Nov 19, 2014 $5.99N/A (N/A/74%)20,000 .. 50,0000%00:00 (00:00)
52 Alchemy Mysteries: Prague Legends Dec 22, 2014 $1.2943% (77%)100,000 .. 200,0000%00:00 (00:00)
53 Paranormal State: Poison Spring Nov 26, 2013 $9.9943% (77%)20,000 .. 50,0000.84%01:02 (00:20)
54 SinaRun Oct 26, 2015 $2.9943% (77%)0 .. 20,0000%00:00 (00:00)
55 Pixel Puzzles 2: Birds Feb 20, 2015 $9.9941% (76%)200,000 .. 500,0000.88%03:59 (05:18)
56 Puzzler World 2 Oct 24, 2011 $4.9941% (76%)20,000 .. 50,0000%00:00 (00:00)
57 Farm Frenzy: Hurricane Season Jul 3, 2015 $6.99N/A (N/A)0 .. 20,0000%00:00 (00:00)
58 Prehistoric Tales May 26, 2016 $2.99N/A (N/A)0 .. 20,0000%00:00 (00:00)
59 Smooth Operators Jan 14, 2013 $5.9935% (73%)20,000 .. 50,0001.2%00:53 (00:17)
60 Turbo Pug 3D Sep 20, 2016 $0.9935% (73%)200,000 .. 500,0002.59%03:52 (04:12)
61 Riddles Of The Past Jul 22, 2016 $6.9935% (73%)0 .. 20,0000%00:00 (00:00)
62 Lift It Jan 20, 2017 $4.99N/A (N/A)20,000 .. 50,0000.43%07:34 (02:31)
63 Crashed Lander Jun 17, 2014 $4.99N/A (N/A)0 .. 20,0000%00:00 (00:00)
64 Viking Brothers Apr 23, 2014 $9.99N/A (N/A)0 .. 20,0000%00:00 (00:00)
65 Caravanserail Mar 10, 2016 $2.99N/A (N/A)0 .. 20,0000%00:00 (00:00)
66 Laserlife Sep 22, 2015 $14.99N/A (N/A)0 .. 20,0000%00:00 (00:00)
67 Zipple World Jan 19, 2016 $4.99N/A (N/A)0 .. 20,0000%00:00 (00:00)
68 Impossible Quest Jun 3, 2016 $1.9929% (69%)0 .. 20,0000%00:00 (00:00)
69 Over The Void Nov 11, 2014 $4.9929% (69%)20,000 .. 50,0000%00:00 (00:00)
70 Energy Balance Jul 2, 2015 $2.99N/A (N/A)200,000 .. 500,0001.23%05:15 (05:40)
71 Love in the Glen Jun 8, 2016 $5.99N/A (N/A)20,000 .. 50,0000%00:00 (00:00)
72 League of Mermaids Sep 22, 2015 $6.99N/A (N/A)0 .. 20,0000%00:00 (00:00)
73 Pester Aug 21, 2015 $0.99N/A (N/A)100,000 .. 200,0000%00:00 (00:00)
74 Sinister City Oct 18, 2014 $0.9927% (68%)100,000 .. 200,0000%00:00 (00:00)
75 1931: Scheherazade at the Library of Pergamum Mar 26, 2015 $14.9926% (67%)0 .. 20,0001.67%00:08 (00:02)
76 Our Love Will Grow Dec 4, 2015 $4.9926% (67%)20,000 .. 50,0000%00:00 (00:00)
77 Strategy & Tactics: Dark Ages Aug 4, 2017 $14.9926% (67%)20,000 .. 50,0000%00:00 (00:00)
78 Wildlife Park 2 May 12, 2006 $6.9926% (67%)100,000 .. 200,0007.14%00:35 (00:11)
79 The Treasures of Montezuma 3 May 19, 2011 $3.9923% (65%)20,000 .. 50,0000%00:00 (00:00)
80 Reset 1-1 Aug 30, 2016 $1.9922% (64%)200,000 .. 500,0000.43%03:47 (04:16)
81 XCavalypse Jun 6, 2016 $5.99N/A (N/A)0 .. 20,0006.25%01:44 (00:34)
82 Mars Colony:Challenger Mar 4, 2014 $4.9920% (62%)0 .. 20,0000%00:00 (00:00)
83 Off-Road Paradise: Trial 4x4 Feb 6, 2017 $19.9920% (62%)0 .. 20,0000%00:00 (00:00)
84 Annie Amber Jun 17, 2016 $2.99N/A (N/A)0 .. 20,0000%00:00 (00:00)
85 Meadowland Oct 22, 2014 $3.99N/A (N/A)0 .. 20,0000%00:00 (00:00)
86 Won't You Be My Laser? Sep 2, 2016 $0.99N/A (N/A)0 .. 20,0000%00:00 (00:00)
87 Star Chronicles: Delta Quadrant Jul 7, 2015 $0.4917% (59%)200,000 .. 500,0000.17%02:14 (01:29)
88 Party Saboteurs Oct 20, 2016 $9.99N/A (N/A)0 .. 20,0000%00:00 (00:00)
89 Townopolis Apr 27, 2016 $3.99N/A (N/A)20,000 .. 50,0000%00:00 (00:00)
90 Rolling Shapes Jun 5, 2015 $0.99N/A (N/A)0 .. 20,0000%00:00 (00:00)
91 Way of Gold and Steel Aug 17, 2015 $8.9915% (57%)0 .. 20,0000%00:00 (00:00)
92 Ski Park Tycoon Feb 3, 2015 $9.99N/A (N/A)0 .. 20,0000%00:00 (00:00)
93 Backgammon Blitz Nov 12, 2015 $3.9912% (54%)0 .. 20,0000%00:00 (00:00)
94 Drizzlepath Mar 12, 2015 $2.9912% (54%)0 .. 20,0000%00:00 (00:00)
95 Quantum Rush Champions Dec 4, 2014 $9.9912% (53%)20,000 .. 50,0000.89%01:30 (00:30)
96 iso-Sphere Nov 13, 2015 $3.99N/A (N/A)0 .. 20,0000%00:00 (00:00)
97 Rage Runner May 16, 2014 $4.99N/A (N/A)0 .. 20,0000%00:00 (00:00)
98 Autumn May 14, 2016 $2.998% (46%)50,000 .. 100,0001.13%02:02 (01:21)
99 Evolution Jun 6, 2016 FreeN/A (N/A)0 .. 20,0000%00:00 (00:00)
100 Red Goblin: Cursed Forest May 15, 2015 $4.99N/A (N/A)20,000 .. 50,0001.59%00:01 (00:00)
101 Oil Enterprise Apr 20, 2016 $19.997% (45%)0 .. 20,0000%00:00 (00:00)
102 Melting Hearts: Our Love Will Grow 2 Apr 29, 2016 N/AN/A (N/A)20,000 .. 50,0000%00:00 (00:00)
103 Last Answer Jan 9, 2017 $4.993% (33%)100,000 .. 200,0000%00:00 (00:00)
104 Robot vs Birds Zombies Jul 23, 2015 $0.993% (31%)0 .. 20,0000%00:00 (00:00)
105 Labyrinth Simulator Sep 21, 2015 $4.99N/A (N/A)0 .. 20,0002.22%01:07 (00:22)
106 Hyposphere May 5, 2016 $2.99N/A (N/A)200,000 .. 500,0000.31%04:19 (02:52)
107 Cyber Team Manager Jan 18, 2016 $4.99N/A (N/A)0 .. 20,0000%00:00 (00:00)
108 One way to exit Mar 12, 2016 $1.99N/A (N/A)200,000 .. 500,0000%00:00 (00:00)

Tags over time:

Access restricted.

This feature is only available to users with special access rights. Sorry.

If you want to proceed, you need to register or log in first and then back Steam Spy on Patreon. Look for Indie or Pro pledge.

Don't forget to use the same email as on Steam Spy!

Owners of this game also own:

Access restricted.

This feature is only available to users with special access rights. Sorry.

If you want to proceed, you need to register or log in first and then back Steam Spy on Patreon. Look for Indie or Pro pledge.

Don't forget to use the same email as on Steam Spy!

Playtime distribution:

Access restricted.

This feature is only available to users with special access rights. Sorry.

If you want to proceed, you need to register or log in first and then back Steam Spy on Patreon. Look for Indie or Pro pledge.

Don't forget to use the same email as on Steam Spy!

Playtime (2 weeks):

Access restricted.

This feature is only available to users with special access rights. Sorry.

If you want to proceed, you need to register or log in first and then back Steam Spy on Patreon. Look for Indie or Pro pledge.

Don't forget to use the same email as on Steam Spy!

User reviews:

Login required.

Please register or log in to see this information.